Time;durP1;ratioP1;P1;durP2;ratioP2;P2;SDS_P1;SDS_P2;PMS_P1;PMS_P2;Temp;Humidity;BMP_temperature;BMP_pressure;BME280_temperature;BME280_humidity;BME280_pressure;Samples;Min_cycle;Max_cycle;Signal;HPM_P1;HPM_P2
2022/02/22 00:02:19;;;;;;;1.02;0.42;;;;;;;-0.37;91.17;97159.09;1787815;79;21151;-62
2022/02/22 00:04:45;;;;;;;1.80;0.57;;;;;;;-0.39;90.76;97187.84;1777354;79;21039;-62
2022/02/22 00:07:13;;;;;;;1.70;0.60;;;;;;;-0.43;91.10;97172.19;1792463;79;20910;-63
2022/02/22 00:09:40;;;;;;;2.60;0.53;;;;;;;-0.44;90.85;97178.23;1790259;79;21612;-62
2022/02/22 00:12:09;;;;;;;3.17;0.68;;;;;;;-0.42;90.78;97190.54;1779683;78;20961;-63
2022/02/22 00:14:36;;;;;;;1.37;0.40;;;;;;;-0.40;90.42;97211.80;1791007;79;21066;-63
2022/02/22 00:17:03;;;;;;;2.70;0.62;;;;;;;-0.40;90.55;97181.03;1791368;78;21035;-63
2022/02/22 00:19:31;;;;;;;1.10;0.40;;;;;;;-0.39;90.40;97205.79;1786170;79;21059;-62
2022/02/22 00:21:57;;;;;;;1.60;0.30;;;;;;;-0.38;90.37;97210.00;1782471;79;29557;-63
2022/02/22 00:24:24;;;;;;;1.40;0.55;;;;;;;-0.36;90.50;97213.34;1793396;79;21014;-63
2022/02/22 00:26:51;;;;;;;0.67;0.33;;;;;;;-0.34;90.51;97226.08;1794154;79;21525;-63
2022/02/22 00:29:18;;;;;;;0.65;0.45;;;;;;;-0.32;90.60;97223.83;1796751;79;20949;-62
2022/02/22 00:31:44;;;;;;;0.88;0.47;;;;;;;-0.30;90.42;97219.94;1793973;79;20917;-63
2022/02/22 00:34:11;;;;;;;3.60;0.50;;;;;;;-0.29;90.40;97230.11;1798664;79;20898;-63
2022/02/22 00:36:38;;;;;;;1.23;0.60;;;;;;;-0.27;90.36;97228.31;1795343;78;21056;-63
2022/02/22 00:39:06;;;;;;;0.65;0.30;;;;;;;-0.25;90.28;97248.33;1768052;79;20994;-63
2022/02/22 00:41:33;;;;;;;0.40;0.37;;;;;;;-0.23;90.20;97252.91;1775231;79;20968;-63
2022/02/22 00:43:59;;;;;;;2.37;0.42;;;;;;;-0.22;90.23;97253.77;1789267;78;21519;-63
2022/02/22 00:46:26;;;;;;;2.00;0.60;;;;;;;-0.23;90.24;97264.45;1770844;78;20976;-62
2022/02/22 00:48:52;;;;;;;1.90;0.70;;;;;;;-0.23;90.11;97270.87;1792976;78;21495;-63
2022/02/22 00:51:19;;;;;;;2.30;0.50;;;;;;;-0.21;90.13;97282.81;1806280;78;21443;-63
2022/02/22 00:53:46;;;;;;;1.07;0.40;;;;;;;-0.21;90.13;97277.69;1816011;77;21539;-63
2022/02/22 00:56:15;;;;;;;0.75;0.40;;;;;;;-0.19;90.10;97301.54;1820107;78;20980;-63
2022/02/22 00:58:42;;;;;;;0.68;0.30;;;;;;;-0.17;90.08;97299.72;1817727;78;21004;-63
2022/02/22 01:01:14;;;;;;;1.32;0.40;;;;;;;-0.17;90.03;97304.84;1812466;77;21335;-63
2022/02/22 01:03:37;;;;;;;2.47;0.57;;;;;;;-0.17;90.01;97309.98;1814991;78;22249;-64
2022/02/22 01:06:05;;;;;;;0.30;0.20;;;;;;;-0.19;89.92;97310.52;1814266;78;20936;-64
2022/02/22 01:08:32;;;;;;;1.40;1.02;;;;;;;-0.19;89.91;97305.39;1815540;78;20938;-64
2022/02/22 01:10:59;;;;;;;0.75;0.45;;;;;;;-0.20;89.87;97318.63;1823345;78;28182;-64
2022/02/22 01:13:26;;;;;;;0.80;0.45;;;;;;;-0.20;89.88;97312.67;1788460;78;21555;-64
2022/02/22 01:15:52;;;;;;;2.80;0.70;;;;;;;-0.18;89.88;97328.84;1786254;78;21468;-64
2022/02/22 01:18:19;;;;;;;1.02;0.40;;;;;;;-0.19;89.82;97338.27;1789305;78;21333;-64
2022/02/22 01:20:46;;;;;;;0.37;0.33;;;;;;;-0.20;89.78;97333.19;1798649;78;21012;-64
2022/02/22 01:23:12;;;;;;;1.50;0.60;;;;;;;-0.18;89.71;97349.36;1787417;79;21539;-63
2022/02/22 01:25:39;;;;;;;3.00;0.45;;;;;;;-0.18;89.74;97357.05;1785750;79;21524;-63
2022/02/22 01:28:06;;;;;;;2.60;0.50;;;;;;;-0.19;89.75;97360.08;1790140;79;21936;-63
2022/02/22 01:30:33;;;;;;;0.82;0.30;;;;;;;-0.20;89.71;97366.53;1785019;78;21001;-63
2022/02/22 01:33:00;;;;;;;3.72;0.55;;;;;;;-0.25;90.01;97384.24;1780993;78;21548;-64
2022/02/22 01:35:27;;;;;;;0.82;0.35;;;;;;;-0.34;91.89;97378.19;1794489;79;21048;-64
2022/02/22 01:37:53;;;;;;;1.67;0.60;;;;;;;-0.48;92.83;97374.93;1784631;79;21796;-63
2022/02/22 01:40:21;;;;;;;1.15;0.62;;;;;;;-0.60;93.18;97384.38;1790104;78;21110;-64
2022/02/22 01:42:48;;;;;;;1.50;0.50;;;;;;;-0.66;93.11;97395.33;1786221;79;28222;-63
2022/02/22 01:45:15;;;;;;;3.85;0.75;;;;;;;-0.66;93.07;97406.86;1787364;79;21039;-64
2022/02/22 01:47:41;;;;;;;0.40;0.30;;;;;;;-0.66;93.45;97417.11;1784241;79;21083;-64
2022/02/22 01:50:09;;;;;;;1.65;0.57;;;;;;;-0.68;93.53;97419.27;1790364;79;20930;-64
2022/02/22 01:52:35;;;;;;;;;;;;;;;-0.70;93.68;97432.61;1786268;79;21088;-64
2022/02/22 01:55:03;;;;;;;0.80;0.37;;;;;;;-0.71;93.47;97428.36;1783875;79;20110;-64
2022/02/22 01:57:30;;;;;;;1.25;0.60;;;;;;;-0.70;93.45;97426.20;1753703;79;20926;-64
2022/02/22 01:59:57;;;;;;;1.92;0.82;;;;;;;-0.69;93.36;97435.55;1782839;78;21079;-63
2022/02/22 02:02:24;;;;;;;1.33;0.43;;;;;;;-0.66;93.04;97447.86;1787691;78;21107;-64
2022/02/22 02:04:51;;;;;;;1.45;0.82;;;;;;;-0.65;92.96;97447.78;1790692;79;21130;-63
2022/02/22 02:07:18;;;;;;;1.57;0.40;;;;;;;-0.63;92.92;97453.70;1785785;79;21487;-63
2022/02/22 02:09:44;;;;;;;1.00;0.42;;;;;;;-0.59;92.81;97474.91;1789511;79;20901;-64
2022/02/22 02:12:11;;;;;;;1.82;0.80;;;;;;;-0.58;92.63;97467.17;1786086;79;21074;-64
2022/02/22 02:14:38;;;;;;;1.20;0.50;;;;;;;-0.58;92.73;97477.87;1790968;79;20949;-64
2022/02/22 02:17:06;;;;;;;3.62;0.82;;;;;;;-0.57;92.55;97480.82;1774912;79;21514;-63
2022/02/22 02:19:32;;;;;;;1.32;0.40;;;;;;;-0.57;92.56;97470.56;1781995;79;20938;-64
2022/02/22 02:21:59;;;;;;;2.75;1.07;;;;;;;-0.59;92.55;97480.03;1785572;79;20945;-64
2022/02/22 02:24:28;;;;;;;0.98;0.30;;;;;;;-0.59;92.56;97497.98;1765361;79;21032;-64
2022/02/22 02:26:56;;;;;;;2.25;0.53;;;;;;;-0.59;92.44;97507.78;1764093;80;21040;-64
2022/02/22 02:29:28;;;;;;;2.55;0.85;;;;;;;-0.56;92.25;97510.67;1764426;81;21118;-64
2022/02/22 02:31:57;;;;;;;1.20;0.50;;;;;;;-0.55;92.25;97525.19;1778952;79;22084;-63
2022/02/22 02:34:27;;;;;;;2.05;0.50;;;;;;;-0.51;92.19;97526.72;1770630;80;21476;-64
2022/02/22 02:36:55;;;;;;;1.82;0.75;;;;;;;-0.49;92.39;97528.79;1775625;80;20971;-64
2022/02/22 02:39:22;;;;;;;1.00;0.68;;;;;;;-0.51;92.51;97531.84;1771955;80;20908;-64
2022/02/22 02:41:50;;;;;;;1.67;0.65;;;;;;;-0.52;92.63;97537.42;1776770;78;21707;-64
2022/02/22 02:44:20;;;;;;;3.87;0.80;;;;;;;-0.53;92.65;97555.45;1773680;80;20943;-64
2022/02/22 02:46:48;;;;;;;2.35;0.72;;;;;;;-0.55;93.00;97571.32;1773517;80;20897;-64
2022/02/22 02:49:18;;;;;;;3.52;0.78;;;;;;;-0.57;92.90;97569.25;1774729;80;20975;-64
2022/02/22 02:51:45;;;;;;;1.47;0.70;;;;;;;-0.56;92.78;97569.63;1771072;79;21571;-63
2022/02/22 02:54:12;;;;;;;2.25;0.75;;;;;;;-0.53;92.66;97579.80;1773039;80;21414;-64
2022/02/22 02:56:40;;;;;;;1.55;0.70;;;;;;;-0.51;92.63;97590.81;1779130;80;21000;-64
2022/02/22 02:59:10;;;;;;;1.05;0.45;;;;;;;-0.50;92.49;97582.25;1780117;80;28120;-63
2022/02/22 03:01:38;;;;;;;0.85;0.60;;;;;;;-0.48;92.38;97593.26;1777865;80;21575;-64
2022/02/22 03:04:05;;;;;;;5.55;0.72;;;;;;;-0.45;92.25;97599.55;1777288;80;21504;-64
2022/02/22 03:06:32;;;;;;;1.25;0.55;;;;;;;-0.42;92.17;97605.88;1778828;78;21461;-64
2022/02/22 03:09:00;;;;;;;2.33;0.95;;;;;;;-0.40;92.04;97610.93;1777169;80;20955;-66
2022/02/22 03:11:27;;;;;;;1.17;0.50;;;;;;;-0.39;92.06;97624.13;1774010;80;20934;-64
2022/02/22 03:13:54;;;;;;;2.67;0.70;;;;;;;-0.43;92.13;97639.25;1773998;80;21594;-64
2022/02/22 03:16:20;;;;;;;3.58;1.17;;;;;;;-0.48;92.19;97644.53;1783036;79;20982;-64
2022/02/22 03:18:47;;;;;;;1.85;0.75;;;;;;;-0.54;93.54;97643.02;1778670;78;21141;-64
2022/02/22 03:21:15;;;;;;;3.27;0.67;;;;;;;-0.59;93.65;97646.64;1758436;81;21092;-64
2022/02/22 03:23:41;;;;;;;0.60;0.50;;;;;;;-0.66;94.01;97668.27;1757537;81;21005;-63
2022/02/22 03:26:09;;;;;;;1.00;0.60;;;;;;;-0.71;93.93;97667.97;1782446;79;20984;-63
2022/02/22 03:28:36;;;;;;;2.30;0.60;;;;;;;-0.72;93.97;97672.72;1772284;79;21522;-64
2022/02/22 03:31:03;;;;;;;;;;;;;;;-0.73;93.99;97683.87;1793326;79;21404;-63
2022/02/22 03:33:33;;;;;;;4.83;0.88;;;;;;;-0.72;93.97;97688.09;1781537;79;20170;-63
2022/02/22 03:36:01;;;;;;;1.98;0.85;;;;;;;-0.72;93.76;97691.94;1779834;79;21064;-64
2022/02/22 03:38:27;;;;;;;1.95;0.60;;;;;;;-0.71;93.61;97700.00;1759765;80;21112;-64
2022/02/22 03:40:54;;;;;;;1.32;0.57;;;;;;;-0.71;93.44;97694.88;1782845;79;20997;-64
2022/02/22 03:43:21;;;;;;;5.22;0.50;;;;;;;-0.71;93.24;97706.41;1773161;80;21514;-64
2022/02/22 03:45:48;;;;;;;1.90;0.60;;;;;;;-0.70;93.12;97717.08;1751315;80;21005;-64
2022/02/22 03:48:15;;;;;;;1.12;0.50;;;;;;;-0.66;92.97;97727.22;1786433;79;20945;-63
2022/02/22 03:50:42;;;;;;;2.20;0.80;;;;;;;-0.66;92.81;97729.78;1784942;79;21495;-64
2022/02/22 03:53:08;;;;;;;1.17;0.62;;;;;;;-0.62;92.74;97741.59;1787001;80;20973;-64
2022/02/22 03:55:35;;;;;;;0.72;0.50;;;;;;;-0.63;92.52;97748.90;1791499;80;21409;-64
2022/02/22 03:58:02;;;;;;;0.40;0.40;;;;;;;-0.60;92.54;97752.64;1779917;79;20984;-64
2022/02/22 04:00:29;;;;;;;2.23;0.80;;;;;;;-0.58;92.41;97750.87;1784074;79;20994;-63
2022/02/22 04:02:56;;;;;;;;;;;;;;;-0.57;92.25;97760.22;1781174;79;22273;-64
2022/02/22 04:05:23;;;;;;;1.67;0.57;;;;;;;-0.55;92.15;97762.30;1783088;80;20145;-64
2022/02/22 04:07:51;;;;;;;2.72;0.80;;;;;;;-0.55;92.06;97772.55;1779592;79;21985;-64
2022/02/22 04:10:18;;;;;;;1.12;0.60;;;;;;;-0.56;91.68;97779.83;1783441;80;21045;-63
2022/02/22 04:12:45;;;;;;;1.25;0.70;;;;;;;-0.54;91.80;97778.89;1783481;79;20978;-63
2022/02/22 04:15:11;;;;;;;2.95;1.47;;;;;;;-0.51;91.34;97792.05;1784638;79;20950;-63
2022/02/22 04:17:39;;;;;;;1.10;0.60;;;;;;;-0.50;91.25;97809.12;1790192;79;21850;-63
2022/02/22 04:20:07;;;;;;;3.85;0.93;;;;;;;-0.48;91.39;97803.06;1778453;79;21419;-64
2022/02/22 04:22:34;;;;;;;2.10;0.90;;;;;;;-0.47;91.52;97812.87;1780783;80;20989;-63
2022/02/22 04:25:01;;;;;;;1.90;0.95;;;;;;;-0.46;91.28;97814.53;1780660;79;20993;-63
2022/02/22 04:27:28;;;;;;;2.30;0.60;;;;;;;-0.46;91.22;97824.79;1776134;79;20998;-63
2022/02/22 04:29:55;;;;;;;0.75;0.40;;;;;;;-0.46;90.91;97824.79;1781783;80;20997;-63
2022/02/22 04:32:21;;;;;;;1.73;0.73;;;;;;;-0.46;90.82;97840.17;1769779;80;21533;-63
2022/02/22 04:34:49;;;;;;;1.63;0.60;;;;;;;-0.45;90.78;97839.27;1787047;78;22169;-63
2022/02/22 04:37:16;;;;;;;;;;;;;;;-0.45;90.99;97849.53;1771976;78;20977;-63
2022/02/22 04:39:46;;;;;;;2.17;0.60;;;;;;;-0.43;90.63;97858.02;1776068;79;20168;-64
2022/02/22 04:42:14;;;;;;;1.05;0.60;;;;;;;-0.40;90.43;97847.66;1788691;79;21097;-63
2022/02/22 04:44:41;;;;;;;2.77;0.70;;;;;;;-0.44;90.05;97860.20;1788749;79;21564;-63
2022/02/22 04:47:08;;;;;;;1.70;0.53;;;;;;;-0.44;90.26;97853.79;1786863;78;20974;-64
2022/02/22 04:49:35;;;;;;;1.07;0.78;;;;;;;-0.44;90.46;97864.05;1780817;79;21032;-63
2022/02/22 04:52:04;;;;;;;4.87;1.55;;;;;;;-0.44;90.21;97872.19;1780136;79;21544;-64
2022/02/22 04:54:31;;;;;;;2.70;0.88;;;;;;;-0.45;89.47;97885.42;1788611;78;20901;-63
2022/02/22 04:56:57;;;;;;;3.65;0.70;;;;;;;-0.43;89.74;97886.22;1796866;78;22279;-63
2022/02/22 04:59:24;;;;;;;1.55;0.65;;;;;;;-0.43;89.51;97892.63;1792161;78;20980;-63
2022/02/22 05:01:52;;;;;;;3.08;1.05;;;;;;;-0.44;89.29;97896.09;1780690;79;21006;-63
2022/02/22 05:04:18;;;;;;;;;;;;;;;-0.46;89.03;97886.33;1796162;79;21021;-63
2022/02/22 05:06:45;;;;;;;2.75;1.15;;;;;;;-0.46;89.31;97899.14;1793138;78;20197;-63
2022/02/22 05:09:12;;;;;;;1.62;0.70;;;;;;;-0.47;88.92;97904.72;1797396;79;22268;-63
2022/02/22 05:11:39;;;;;;;1.12;0.60;;;;;;;-0.48;89.11;97903.47;1790159;79;21001;-64
2022/02/22 05:14:06;;;;;;;1.95;0.75;;;;;;;-0.47;89.36;97908.56;1788295;79;20971;-63
2022/02/22 05:16:39;;;;;;;0.90;0.45;;;;;;;-0.47;89.03;97917.98;1791678;79;21515;-63
2022/02/22 05:19:06;;;;;;;1.55;0.80;;;;;;;-0.47;89.18;97929.53;1793615;79;20910;-63
2022/02/22 05:21:34;;;;;;;0.90;0.65;;;;;;;-0.49;88.97;97925.72;1796058;79;21869;-63
2022/02/22 05:24:02;;;;;;;2.25;0.90;;;;;;;-0.50;88.84;97928.34;1794884;79;20934;-63
2022/02/22 05:26:30;;;;;;;1.65;0.70;;;;;;;-0.51;89.27;97935.63;1791806;79;20949;-63
2022/02/22 05:28:57;;;;;;;1.32;0.93;;;;;;;-0.53;89.09;97941.27;1792385;79;21027;-63
2022/02/22 05:31:24;;;;;;;2.42;1.07;;;;;;;-0.55;89.37;97948.98;1784547;79;21574;-63
2022/02/22 05:33:51;;;;;;;0.90;0.60;;;;;;;-0.56;89.08;97941.33;1789163;79;21486;-63
2022/02/22 05:36:21;;;;;;;2.67;0.65;;;;;;;-0.60;89.12;97952.58;1796176;79;21028;-63
2022/02/22 05:38:49;;;;;;;1.52;0.60;;;;;;;-0.64;89.28;97968.92;1793727;79;21044;-62
2022/02/22 05:41:18;;;;;;;1.52;0.93;;;;;;;-0.71;89.55;97956.30;1789547;79;21516;-63
2022/02/22 05:43:46;;;;;;;3.20;0.88;;;;;;;-0.71;89.67;97979.36;1793666;79;20965;-62
2022/02/22 05:46:14;;;;;;;2.08;0.78;;;;;;;-0.70;89.68;97995.16;1787838;79;21687;-62
2022/02/22 05:48:41;;;;;;;3.67;1.10;;;;;;;-0.70;89.63;97990.03;1788645;79;20918;-63
2022/02/22 05:51:09;;;;;;;2.15;0.95;;;;;;;-0.73;89.05;97994.38;1787570;79;20926;-63
2022/02/22 05:53:36;;;;;;;2.00;1.05;;;;;;;-0.72;89.44;98009.73;1784559;79;21032;-63
2022/02/22 05:56:04;;;;;;;1.67;0.78;;;;;;;-0.72;89.29;98018.70;1793935;79;21526;-62
2022/02/22 05:58:31;;;;;;;1.35;0.70;;;;;;;-0.70;89.29;98015.66;1795459;79;21068;-63
2022/02/22 06:00:57;;;;;;;2.50;0.70;;;;;;;-0.66;89.12;98027.09;1790971;79;20982;-62
2022/02/22 06:03:24;;;;;;;1.37;0.67;;;;;;;-0.64;89.15;98027.87;1796568;79;20957;-62
2022/02/22 06:05:51;;;;;;;1.87;1.00;;;;;;;-0.63;88.50;98043.22;1787572;79;22169;-63
2022/02/22 06:08:18;;;;;;;2.95;1.15;;;;;;;-0.62;88.77;98044.89;1787521;79;21584;-62
2022/02/22 06:10:47;;;;;;;2.93;0.80;;;;;;;-0.60;88.79;98056.39;1787654;79;21230;-63
2022/02/22 06:13:13;;;;;;;2.33;1.15;;;;;;;-0.60;88.83;98065.37;1765761;78;21031;-62
2022/02/22 06:15:40;;;;;;;4.03;1.00;;;;;;;-0.60;88.61;98062.80;1795722;79;21013;-63
2022/02/22 06:18:07;;;;;;;5.27;0.70;;;;;;;-0.57;88.78;98070.41;1794929;79;20990;-63
2022/02/22 06:20:35;;;;;;;1.50;0.72;;;;;;;-0.55;88.58;98071.20;1793491;79;21052;-63
2022/02/22 06:23:03;;;;;;;1.47;0.70;;;;;;;-0.56;88.14;98074.64;1795941;79;21123;-62
2022/02/22 06:25:30;;;;;;;1.25;0.68;;;;;;;-0.56;87.81;98086.17;1791341;79;21006;-62
2022/02/22 06:27:58;;;;;;;3.00;0.70;;;;;;;-0.59;88.02;98101.20;1780794;80;28931;-62
2022/02/22 06:30:26;;;;;;;1.37;0.80;;;;;;;-0.59;88.24;98109.33;1778211;80;20909;-62
2022/02/22 06:32:54;;;;;;;1.02;0.70;;;;;;;-0.62;88.37;98114.55;1780476;80;21005;-63
2022/02/22 06:35:22;;;;;;;2.85;0.88;;;;;;;-0.63;88.52;98120.13;1780978;79;22056;-62
2022/02/22 06:37:50;;;;;;;2.55;1.50;;;;;;;-0.60;88.24;98132.02;1783121;80;21025;-62
2022/02/22 06:40:17;;;;;;;2.72;0.78;;;;;;;-0.60;88.36;98129.45;1780603;79;20987;-63
2022/02/22 06:42:43;;;;;;;1.82;0.90;;;;;;;-0.58;88.12;98145.64;1776830;80;21033;-62
2022/02/22 06:45:11;;;;;;;1.90;1.00;;;;;;;-0.56;88.25;98148.98;1780650;80;20950;-62
2022/02/22 06:47:40;;;;;;;3.45;0.95;;;;;;;-0.51;88.25;98159.95;1783016;79;21082;-63
2022/02/22 08:41:03;;;;;;;2.90;1.02;;;;;;;-0.85;85.70;98400.47;1874424;74;22023;-63
2022/02/22 08:43:31;;;;;;;1.52;1.00;;;;;;;-0.84;85.98;98403.45;1830944;76;21250;-63
2022/02/22 08:45:58;;;;;;;;;;;;;;;-0.78;85.89;98416.13;1831526;76;21091;-64
2022/02/22 08:48:24;;;;;;;4.72;1.45;;;;;;;-0.73;85.96;98416.87;1837896;75;20153;-63
2022/02/22 08:50:52;;;;;;;4.47;2.00;;;;;;;-0.64;86.11;98427.77;1833894;76;21027;-63
2022/02/22 08:53:19;;;;;;;1.40;1.02;;;;;;;-0.56;86.13;98416.89;1841560;76;20943;-63
2022/02/22 08:55:46;;;;;;;1.98;1.32;;;;;;;-0.45;86.10;98436.72;1826910;76;20992;-63
2022/02/22 08:58:15;;;;;;;1.98;1.27;;;;;;;-0.45;85.14;98444.41;1829453;76;21880;-64
2022/02/22 09:00:42;;;;;;;2.55;1.10;;;;;;;-0.39;85.59;98439.16;1830600;76;21526;-64
2022/02/22 09:03:09;;;;;;;5.17;1.70;;;;;;;-0.39;84.97;98441.73;1833302;76;20993;-64
2022/02/22 09:05:36;;;;;;;2.33;1.10;;;;;;;-0.42;84.32;98444.37;1833239;76;20954;-65
2022/02/22 09:08:05;;;;;;;3.17;1.20;;;;;;;-0.43;84.98;98445.23;1841131;76;21558;-66
2022/02/22 09:10:32;;;;;;;2.02;1.22;;;;;;;-0.38;85.23;98447.25;1847681;76;21085;-64
2022/02/22 09:13:00;;;;;;;3.00;1.40;;;;;;;-0.35;84.44;98456.16;1830440;76;21507;-64
2022/02/22 09:15:31;;;;;;;5.58;2.02;;;;;;;-0.32;85.00;98452.67;1806377;75;21656;-65
2022/02/22 09:17:56;;;;;;;3.30;1.77;;;;;;;-0.31;85.17;98452.66;1830724;76;20978;-68
2022/02/22 09:20:23;;;;;;;3.85;1.30;;;;;;;-0.26;85.31;98466.19;1827538;76;21059;-65
2022/02/22 09:22:51;;;;;;;2.45;1.30;;;;;;;-0.21;85.47;98469.09;1824707;76;21074;-67
2022/02/22 09:25:21;;;;;;;2.42;1.22;;;;;;;-0.15;85.16;98483.06;1833783;76;21068;-68
2022/02/22 09:27:50;;;;;;;2.98;1.30;;;;;;;-0.16;85.02;98474.52;1829096;76;20958;-65
2022/02/22 09:30:20;;;;;;;2.27;1.40;;;;;;;-0.14;84.75;98497.14;1833585;76;20950;-66
2022/02/22 09:32:49;;;;;;;1.40;0.80;;;;;;;-0.08;85.16;98492.30;1835062;76;20909;-65
2022/02/22 09:35:19;;;;;;;3.62;1.12;;;;;;;0.05;84.76;98494.95;1835117;76;20921;-64
2022/02/22 09:37:46;;;;;;;1.75;1.10;;;;;;;0.11;84.26;98515.78;1831243;76;21748;-65
2022/02/22 09:40:15;;;;;;;3.35;0.70;;;;;;;0.12;84.30;98515.76;1836955;76;22271;-63
2022/02/22 09:42:43;;;;;;;1.15;0.62;;;;;;;0.13;81.26;98527.70;1825971;76;20978;-64
2022/02/22 09:45:11;;;;;;;1.72;0.80;;;;;;;0.12;82.96;98531.16;1833147;76;21009;-65
2022/02/22 09:47:42;;;;;;;1.12;0.50;;;;;;;0.16;83.71;98533.20;1835064;76;21043;-66
2022/02/22 09:50:11;;;;;;;1.62;0.88;;;;;;;0.14;80.51;98541.38;1826742;76;20982;-64
2022/02/22 09:52:39;;;;;;;1.92;1.10;;;;;;;0.26;82.81;98546.67;1838897;76;20967;-66
2022/02/22 09:55:08;;;;;;;1.07;0.60;;;;;;;0.33;82.85;98553.33;1815929;76;21043;-64
2022/02/22 09:57:35;;;;;;;1.67;0.78;;;;;;;0.39;82.24;98559.59;1818169;76;21265;-64
2022/02/22 10:00:24;;;;;;;2.47;1.02;;;;;;;0.44;82.55;98552.62;1823675;76;20882;-65
2022/02/22 10:02:57;;;;;;;1.57;0.80;;;;;;;0.37;81.46;98565.23;1831146;76;20982;-65
2022/02/22 10:05:32;;;;;;;1.45;0.88;;;;;;;0.35;81.41;98581.94;1806736;76;20987;-65
2022/02/22 10:07:59;;;;;;;2.83;0.80;;;;;;;0.32;81.87;98591.45;1824869;76;20915;-66
2022/02/22 10:10:40;;;;;;;2.17;1.10;;;;;;;0.28;81.83;98589.82;1835649;76;22601;-66
2022/02/22 10:13:10;;;;;;;1.70;0.95;;;;;;;0.34;82.42;98594.83;1822410;76;21396;-64
2022/02/22 10:15:41;;;;;;;2.65;1.10;;;;;;;0.41;82.36;98593.78;1807557;76;21649;-65
2022/02/22 10:18:09;;;;;;;1.60;0.90;;;;;;;0.50;83.01;98597.85;1825397;76;21056;-62
2022/02/22 10:20:37;;;;;;;;;;;;;;;0.56;83.07;98596.00;1837116;76;21627;-64
2022/02/22 10:23:06;;;;;;;1.47;0.65;;;;;;;0.56;81.83;98602.83;1819807;76;20145;-64
2022/02/22 10:25:45;;;;;;;1.62;1.02;;;;;;;0.56;81.87;98611.41;1838033;76;21448;-64
2022/02/22 10:28:16;;;;;;;1.70;0.98;;;;;;;0.65;82.59;98612.91;1827076;76;21025;-65
2022/02/22 10:30:44;;;;;;;2.00;0.98;;;;;;;0.76;82.91;98619.06;1838511;76;20970;-64
2022/02/22 10:33:24;;;;;;;1.80;1.20;;;;;;;0.91;82.44;98614.80;1832989;76;21042;-64
2022/02/22 10:35:57;;;;;;;1.80;0.93;;;;;;;0.95;82.52;98622.82;1815795;76;20970;-65
2022/02/22 10:38:29;;;;;;;2.10;0.75;;;;;;;0.86;79.63;98621.78;1826998;76;21112;-64
2022/02/22 10:41:03;;;;;;;2.47;0.98;;;;;;;0.76;79.79;98633.20;1837986;76;20983;-65
2022/02/22 10:43:37;;;;;;;1.42;0.90;;;;;;;0.95;81.46;98628.41;1791146;78;21054;-65
2022/02/22 10:46:08;;;;;;;1.85;0.90;;;;;;;1.09;81.32;98635.31;1756976;80;21029;-64
2022/02/22 10:49:12;;;;;;;1.67;0.88;;;;;;;1.17;80.97;98633.84;1819500;77;21633;-65
2022/02/22 10:51:45;;;;;;;2.27;1.00;;;;;;;1.18;81.49;98643.26;1591366;87;21167;-64
2022/02/22 10:54:37;;;;;;;0.98;0.65;;;;;;;1.32;81.65;98654.02;1663551;84;20981;-64
2022/02/22 10:57:42;;;;;;;1.85;0.65;;;;;;;1.32;81.38;98651.44;1633682;86;21107;-65
2022/02/22 11:00:17;;;;;;;0.93;0.70;;;;;;;1.47;82.03;98643.30;1658653;84;21633;-64
2022/02/22 11:02:45;;;;;;;1.22;0.60;;;;;;;1.59;81.92;98655.41;1635510;86;21029;-65
2022/02/22 11:05:14;;;;;;;1.22;0.70;;;;;;;1.68;82.06;98659.01;1633024;85;21102;-65
2022/02/22 11:08:15;;;;;;;1.42;0.70;;;;;;;1.73;81.88;98664.88;1663008;84;20982;-64
2022/02/22 11:10:49;;;;;;;1.65;0.78;;;;;;;1.78;80.87;98668.16;1638791;84;21674;-64
2022/02/22 11:13:20;;;;;;;2.35;1.00;;;;;;;1.74;79.89;98674.30;1668871;84;21025;-64
2022/02/22 11:15:49;;;;;;;0.80;0.60;;;;;;;1.61;80.18;98675.52;1676909;84;21064;-66
2022/02/22 11:18:23;;;;;;;1.87;1.00;;;;;;;1.54;80.52;98684.70;1647266;83;21217;-64
2022/02/22 11:20:51;;;;;;;1.17;0.60;;;;;;;1.62;80.50;98691.34;1642942;86;21608;-65
2022/02/22 11:23:28;;;;;;;2.50;0.70;;;;;;;1.63;80.38;98686.62;1664161;83;21026;-65
2022/02/22 11:26:18;;;;;;;1.10;0.90;;;;;;;1.54;79.39;98678.27;1613382;86;21496;-70
2022/02/22 11:28:49;;;;;;;1.70;0.90;;;;;;;1.35;77.52;98689.94;1626492;85;22425;-66
2022/02/22 11:31:23;;;;;;;0.85;0.60;;;;;;;1.43;79.90;98698.30;1615002;86;21049;-64
2022/02/22 11:33:51;;;;;;;1.07;0.60;;;;;;;1.67;80.08;98695.93;1634823;85;21145;-66
2022/02/22 11:36:31;;;;;;;1.70;0.70;;;;;;;1.93;81.17;98690.91;1666683;83;21092;-67
2022/02/22 11:38:59;;;;;;;1.72;0.50;;;;;;;2.13;81.08;98697.18;1681050;83;21265;-68
2022/02/22 11:41:31;;;;;;;1.52;0.70;;;;;;;2.18;80.50;98688.88;1699245;83;21153;-67
2022/02/22 11:44:07;;;;;;;1.02;0.70;;;;;;;2.21;79.23;98704.23;1609501;86;21135;-66
2022/02/22 11:46:47;;;;;;;0.78;0.78;;;;;;;2.11;79.30;98728.15;1627054;85;21170;-64
2022/02/22 11:49:27;;;;;;;2.72;0.68;;;;;;;2.05;79.61;98727.48;1639714;85;21040;-66
2022/02/22 11:52:18;;;;;;;4.00;0.70;;;;;;;2.04;80.08;98721.92;1642840;84;21071;-64
2022/02/22 11:54:47;;;;;;;2.37;0.70;;;;;;;2.06;80.30;98726.59;1647185;85;21166;-66
2022/02/22 11:57:17;;;;;;;5.67;1.07;;;;;;;2.15;80.39;98732.75;1656515;84;21072;-67
2022/02/22 11:59:59;;;;;;;1.72;0.70;;;;;;;2.16;80.16;98745.60;1649094;85;21118;-65
2022/02/22 12:02:34;;;;;;;2.83;0.78;;;;;;;2.26;80.52;98737.15;1653487;84;21045;-65
2022/02/22 12:06:12;;;;;;;1.65;0.90;;;;;;;2.25;80.01;98745.78;1843929;75;38291;-64
2022/02/22 12:08:42;;;;;;;2.17;0.85;;;;;;;2.31;80.08;98748.62;1831414;77;20981;-65
2022/02/22 12:11:16;;;;;;;1.10;0.82;;;;;;;2.34;79.74;98763.53;1836997;77;21129;-68
2022/02/22 12:14:02;;;;;;;3.30;0.75;;;;;;;2.18;79.12;98765.69;1830819;77;21123;-64
2022/02/22 12:16:31;;;;;;;2.52;0.60;;;;;;;1.97;79.18;98756.86;1832062;77;20962;-64
2022/02/22 12:19:05;;;;;;;1.85;0.93;;;;;;;1.97;79.38;98764.58;1830406;77;21002;-65
2022/02/22 12:21:34;;;;;;;3.10;1.30;;;;;;;2.22;80.87;98756.17;1827854;77;20986;-64
2022/02/22 12:24:02;;;;;;;2.65;1.62;;;;;;;2.63;81.17;98761.81;1826608;77;21918;-65
2022/02/22 12:27:43;;;;;;;2.87;1.30;;;;;;;2.97;80.48;98755.61;1845074;76;23354;-64
2022/02/22 12:30:11;;;;;;;3.27;1.25;;;;;;;2.95;80.27;98763.86;1799929;78;21072;-65
2022/02/22 12:32:39;;;;;;;2.65;1.60;;;;;;;2.91;80.31;98766.54;1817704;78;21092;-65
2022/02/22 12:35:08;;;;;;;4.12;1.90;;;;;;;2.88;80.23;98767.06;1817407;78;20977;-65
2022/02/22 12:37:45;;;;;;;2.70;1.82;;;;;;;2.86;80.19;98767.13;1817827;78;21032;-65
2022/02/22 12:40:17;;;;;;;3.25;1.27;;;;;;;2.88;80.54;98764.03;1821983;78;21008;-65
2022/02/22 12:42:42;;;;;;;5.15;1.70;;;;;;;2.82;80.08;98769.83;1822406;78;20906;-65
2022/02/22 12:45:16;;;;;;;5.22;1.52;;;;;;;2.64;79.83;98766.09;1823877;78;21874;-65
2022/02/22 12:47:43;;;;;;;5.37;1.70;;;;;;;2.53;79.71;98778.46;1816732;78;21012;-65
2022/02/22 12:50:11;;;;;;;5.37;2.67;;;;;;;2.49;79.83;98767.83;1809362;78;21570;-65
2022/02/22 12:52:38;;;;;;;;;;;;;;;2.48;80.16;98764.87;1816777;78;21065;-65
2022/02/22 12:55:17;;;;;;;2.85;1.62;;;;;;;2.57;80.44;98773.16;1822918;78;20435;-65
2022/02/22 12:57:40;;;;;;;3.92;1.30;;;;;;;2.61;80.24;98779.08;1813791;78;21078;-65
2022/02/22 13:00:11;;;;;;;3.15;1.20;;;;;;;2.61;80.29;98776.05;1827196;77;21060;-64
2022/02/22 13:02:38;;;;;;;3.72;1.50;;;;;;;2.66;80.33;98778.47;1815622;78;21610;-65
2022/02/22 13:05:06;;;;;;;4.23;1.53;;;;;;;2.82;80.34;98773.25;1826199;78;20988;-66
2022/02/22 13:07:34;;;;;;;8.03;2.65;;;;;;;2.82;80.34;98773.25;1820008;78;22091;-65
2022/02/22 13:10:09;;;;;;;4.28;1.80;;;;;;;2.85;80.28;98780.88;1811694;78;21457;-65
2022/02/22 13:12:36;;;;;;;5.50;2.50;;;;;;;2.79;79.87;98779.80;1824334;78;21581;-65
2022/02/22 13:15:06;;;;;;;2.20;1.07;;;;;;;2.74;79.73;98773.92;1826085;78;21001;-65
2022/02/22 13:17:36;;;;;;;3.62;1.52;;;;;;;2.68;79.76;98779.27;1823141;77;21246;-65
2022/02/22 13:20:05;;;;;;;9.85;4.03;;;;;;;2.60;79.66;98775.63;1816314;78;22180;-65
2022/02/22 13:22:35;;;;;;;4.75;2.15;;;;;;;2.61;79.90;98775.21;1822153;78;21069;-65
2022/02/22 13:25:16;;;;;;;3.33;1.40;;;;;;;2.60;79.66;98764.48;1818779;78;21008;-64
2022/02/22 13:27:47;;;;;;;3.80;1.35;;;;;;;2.58;79.53;98765.00;1758616;80;21091;-65
2022/02/22 13:30:14;;;;;;;6.40;1.77;;;;;;;2.53;79.55;98766.87;1776822;79;21028;-65
2022/02/22 13:32:44;;;;;;;2.55;1.50;;;;;;;2.53;79.69;98778.46;1783532;79;21030;-65
2022/02/22 13:35:19;;;;;;;1.75;1.10;;;;;;;2.54;79.59;98774.53;1786679;79;22290;-64
2022/02/22 13:37:46;;;;;;;2.12;1.07;;;;;;;2.59;79.61;98780.85;1765914;80;22216;-65
2022/02/22 13:40:20;;;;;;;2.27;1.30;;;;;;;2.57;79.42;98777.47;1792287;79;20981;-65
2022/02/22 13:43:09;;;;;;;6.97;2.58;;;;;;;2.56;79.53;98775.79;1784265;79;20894;-64